Time;durP1;ratioP1;P1;durP2;ratioP2;P2;SDS_P1;SDS_P2;PMS_P1;PMS_P2;Temp;Humidity;BMP_temperature;BMP_pressure;BME280_temperature;BME280_humidity;BME280_pressure;Samples;Min_cycle;Max_cycle;Signal;HPM_P1;HPM_P2
2023/06/23 00:00:29;;;;;;;;;;;18.00;99.90;;;;;;5057365;28;19950;-86
2023/06/23 00:02:55;;;;;;;;;;;17.90;99.90;;;;;;5065176;28;19909;-85
2023/06/23 00:05:20;;;;;;;;;;;17.90;99.90;;;;;;5072484;28;19904;-86
2023/06/23 00:07:46;;;;;;;;;;;17.80;99.90;;;;;;5073794;28;20275;-86
2023/06/23 00:10:12;;;;;;;;;;;17.70;99.90;;;;;;5073762;28;19909;-86
2023/06/23 00:12:41;;;;;;;;;;;17.60;99.90;;;;;;5073844;28;19916;-87
2023/06/23 00:15:11;;;;;;;;;;;17.60;99.90;;;;;;5073306;28;19948;-85
2023/06/23 00:17:37;;;;;;;;;;;17.40;99.90;;;;;;5094417;28;19919;-85
2023/06/23 00:20:05;;;;;;;;;;;17.20;99.90;;;;;;5077586;28;19916;-87
2023/06/23 00:22:31;;;;;;;;;;;17.10;99.90;;;;;;5078644;28;19983;-85
2023/06/23 00:24:57;;;;;;;;;;;17.10;99.90;;;;;;5060892;28;20013;-85
2023/06/23 00:27:22;;;;;;;;;;;17.10;99.90;;;;;;5077663;28;19912;-84
2023/06/23 00:29:48;;;;;;;;;;;17.00;99.90;;;;;;5060648;28;19921;-85
2023/06/23 00:32:14;;;;;;;;;;;17.00;99.90;;;;;;5077266;28;20389;-85
2023/06/23 00:34:39;;;;;;;;;;;17.00;99.90;;;;;;5077258;28;19908;-84
2023/06/23 00:37:05;;;;;;;;;;;17.00;99.90;;;;;;5077357;28;19916;-82
2023/06/23 00:39:30;;;;;;;;;;;17.00;99.90;;;;;;5060195;28;19909;-85
2023/06/23 00:42:00;;;;;;;;;;;17.00;99.90;;;;;;5076920;28;19912;-85
2023/06/23 00:44:26;;;;;;;;;;;16.90;99.90;;;;;;5060062;28;19908;-85
2023/06/23 00:46:52;;;;;;;;;;;16.90;99.90;;;;;;5076751;28;20346;-85
2023/06/23 00:49:18;;;;;;;;;;;16.90;99.90;;;;;;5060370;28;19908;-85
2023/06/23 00:51:44;;;;;;;;;;;16.90;99.90;;;;;;5076558;28;20050;-85
2023/06/23 00:54:10;;;;;;;;;;;16.80;99.90;;;;;;5059957;28;19913;-85
2023/06/23 00:56:35;;;;;;;;;;;16.80;99.90;;;;;;5093694;28;19916;-83
2023/06/23 00:59:02;;;;;;;;;;;16.80;99.90;;;;;;5076430;28;19912;-82
2023/06/23 01:01:28;;;;;;;;;;;16.80;99.90;;;;;;5076875;28;19916;-83
2023/06/23 01:03:57;;;;;;;;;;;16.80;99.90;;;;;;5059584;28;19909;-86
2023/06/23 01:06:22;;;;;;;;;;;16.70;99.90;;;;;;5059744;28;19912;-84
2023/06/23 01:08:52;;;;;;;;;;;16.70;99.90;;;;;;5059512;28;20318;-84
2023/06/23 01:11:50;;;;;;;;;;;16.70;99.90;;;;;;5059404;28;19950;-84
2023/06/23 01:14:22;;;;;;;;;;;16.70;99.90;;;;;;5053835;28;19958;-84
2023/06/23 01:16:54;;;;;;;;;;;16.70;99.90;;;;;;5059514;28;19974;-84
2023/06/23 01:19:39;;;;;;;;;;;16.70;99.90;;;;;;5059667;28;19992;-84
2023/06/23 01:22:13;;;;;;;;;;;16.70;99.90;;;;;;5075135;28;19991;-84
2023/06/23 01:24:58;;;;;;;;;;;16.70;99.90;;;;;;5076058;28;19908;-85
2023/06/23 01:27:28;;;;;;;;;;;16.70;99.90;;;;;;5074089;28;19961;-84
2023/06/23 01:29:55;;;;;;;;;;;16.70;99.90;;;;;;5061983;28;19916;-83
2023/06/23 01:32:26;;;;;;;;;;;16.70;99.90;;;;;;5059253;28;19912;-85
2023/06/23 01:34:54;;;;;;;;;;;16.60;99.90;;;;;;5059097;28;19908;-84
2023/06/23 01:37:21;;;;;;;;;;;16.60;99.90;;;;;;5058729;28;19908;-83
2023/06/23 01:39:53;;;;;;;;;;;16.70;99.90;;;;;;5070254;28;19915;-84
2023/06/23 01:42:19;;;;;;;;;;;16.60;99.90;;;;;;5059631;28;19908;-84
2023/06/23 01:44:49;;;;;;;;;;;16.60;99.90;;;;;;5059280;28;19909;-83
2023/06/23 01:47:18;;;;;;;;;;;16.50;99.90;;;;;;5059047;28;19909;-85
2023/06/23 01:49:46;;;;;;;;;;;16.50;99.90;;;;;;5072232;28;20303;-84
2023/06/23 01:52:13;;;;;;;;;;;16.40;99.90;;;;;;5058485;28;19912;-84
2023/06/23 01:54:41;;;;;;;;;;;16.30;99.90;;;;;;5068857;28;20253;-85
2023/06/23 01:57:10;;;;;;;;;;;16.30;99.90;;;;;;5075534;28;19912;-84
2023/06/23 01:59:36;;;;;;;;;;;16.20;99.90;;;;;;5058702;28;19904;-85
2023/06/23 02:02:02;;;;;;;;;;;16.20;99.90;;;;;;5076115;28;19915;-85
2023/06/23 02:04:29;;;;;;;;;;;16.20;99.90;;;;;;5058235;28;19908;-85
2023/06/23 02:06:55;;;;;;;;;;;16.20;99.90;;;;;;5075402;28;19908;-85
2023/06/23 02:09:28;;;;;;;;;;;16.20;99.90;;;;;;5058552;28;19931;-86
2023/06/23 02:11:54;;;;;;;;;;;16.20;99.90;;;;;;5075447;28;19917;-85
2023/06/23 02:14:20;;;;;;;;;;;16.20;99.90;;;;;;5059020;28;19905;-85
2023/06/23 02:16:49;;;;;;;;;;;16.20;99.90;;;;;;5059601;28;19912;-84
2023/06/23 02:19:15;;;;;;;;;;;16.20;99.90;;;;;;5083391;28;19912;-84
2023/06/23 02:21:44;;;;;;;;;;;16.20;99.90;;;;;;5074108;28;19915;-85
2023/06/23 02:24:11;;;;;;;;;;;16.20;99.90;;;;;;5090224;28;20018;-86
2023/06/23 02:26:39;;;;;;;;;;;16.20;99.90;;;;;;5074704;28;19946;-85
2023/06/23 02:29:08;;;;;;;;;;;16.20;99.90;;;;;;5080571;28;19912;-85
2023/06/23 02:31:34;;;;;;;;;;;16.20;99.90;;;;;;5061163;28;19934;-86
2023/06/23 02:33:59;;;;;;;;;;;16.20;99.90;;;;;;5078199;28;20385;-85
2023/06/23 02:36:29;;;;;;;;;;;16.20;99.90;;;;;;5076233;28;19917;-85
2023/06/23 02:38:57;;;;;;;;;;;16.20;99.90;;;;;;5081409;28;19916;-84
2023/06/23 02:41:25;;;;;;;;;;;16.20;99.90;;;;;;5070376;28;19908;-86
2023/06/23 02:43:54;;;;;;;;;;;16.20;99.90;;;;;;5075898;28;20003;-84
2023/06/23 02:46:21;;;;;;;;;;;16.20;99.90;;;;;;5059085;28;19991;-85
2023/06/23 02:48:50;;;;;;;;;;;16.20;99.90;;;;;;5058810;28;20350;-84
2023/06/23 02:51:18;;;;;;;;;;;16.20;99.90;;;;;;5058484;28;19913;-85
2023/06/23 02:54:00;;;;;;;;;;;16.20;99.90;;;;;;5074774;28;19920;-84
2023/06/23 02:56:28;;;;;;;;;;;16.20;99.90;;;;;;5060068;28;19948;-85
2023/06/23 02:58:57;;;;;;;;;;;16.20;99.90;;;;;;5074668;28;19939;-85
2023/06/23 03:01:26;;;;;;;;;;;16.20;99.90;;;;;;5057358;28;19909;-85
2023/06/23 03:03:54;;;;;;;;;;;16.20;99.90;;;;;;5089484;28;19904;-83
2023/06/23 03:06:21;;;;;;;;;;;16.20;99.90;;;;;;5057832;28;20020;-84
2023/06/23 03:08:47;;;;;;;;;;;16.20;99.90;;;;;;5075039;28;20065;-86
2023/06/23 03:11:17;;;;;;;;;;;16.10;99.90;;;;;;5074611;28;19912;-85
2023/06/23 03:13:43;;;;;;;;;;;16.10;99.90;;;;;;5075142;28;19908;-85
2023/06/23 03:16:11;;;;;;;;;;;16.10;99.90;;;;;;5089727;28;19908;-85
2023/06/23 03:18:46;;;;;;;;;;;16.10;99.90;;;;;;5071779;28;19930;-85
2023/06/23 03:21:13;;;;;;;;;;;16.00;99.90;;;;;;5076253;28;19909;-87
2023/06/23 03:23:39;;;;;;;;;;;16.00;99.90;;;;;;5085191;28;19904;-87
2023/06/23 03:26:06;;;;;;;;;;;16.00;99.90;;;;;;5074889;28;19909;-87
2023/06/23 03:28:34;;;;;;;;;;;16.00;99.90;;;;;;5055124;28;19947;-87
2023/06/23 03:31:02;;;;;;;;;;;16.00;99.90;;;;;;5074579;28;19918;-87
2023/06/23 03:33:32;;;;;;;;;;;16.00;99.90;;;;;;5075231;28;19915;-86
2023/06/23 03:36:02;;;;;;;;;;;16.00;99.90;;;;;;5075235;28;20453;-87
2023/06/23 03:38:29;;;;;;;;;;;16.00;99.90;;;;;;5075458;28;19954;-86
2023/06/23 03:41:01;;;;;;;;;;;16.10;99.90;;;;;;5058411;28;19908;-87
2023/06/23 03:43:29;;;;;;;;;;;16.10;99.90;;;;;;5059746;28;19957;-87
2023/06/23 03:46:00;;;;;;;;;;;16.10;99.90;;;;;;5073824;28;20371;-87
2023/06/23 03:48:28;;;;;;;;;;;16.00;99.90;;;;;;5074908;28;19908;-86
2023/06/23 03:50:55;;;;;;;;;;;16.10;99.90;;;;;;5056704;28;20364;-85
2023/06/23 03:53:21;;;;;;;;;;;16.00;99.90;;;;;;5074224;28;19914;-86
2023/06/23 03:55:48;;;;;;;;;;;16.10;99.90;;;;;;5058036;28;19922;-86
2023/06/23 03:58:14;;;;;;;;;;;16.00;99.90;;;;;;5058354;28;19908;-87
2023/06/23 04:00:40;;;;;;;;;;;16.00;99.90;;;;;;5057997;28;19934;-85
2023/06/23 04:03:07;;;;;;;;;;;16.00;99.90;;;;;;5075032;28;20411;-88
2023/06/23 04:05:33;;;;;;;;;;;16.00;99.90;;;;;;5075249;28;19919;-88
2023/06/23 04:08:00;;;;;;;;;;;16.00;99.90;;;;;;5075398;28;19908;-87
2023/06/23 04:10:27;;;;;;;;;;;15.90;99.90;;;;;;5074777;28;19908;-86
2023/06/23 04:12:53;;;;;;;;;;;15.90;99.90;;;;;;5074407;28;20267;-88
2023/06/23 04:15:22;;;;;;;;;;;15.90;99.90;;;;;;5074286;28;19909;-87
2023/06/23 04:17:48;;;;;;;;;;;15.90;99.90;;;;;;5074540;28;19955;-86
2023/06/23 04:20:14;;;;;;;;;;;15.80;99.90;;;;;;5057255;28;20032;-87
2023/06/23 04:22:44;;;;;;;;;;;15.70;99.90;;;;;;5074162;28;20057;-87
2023/06/23 04:25:10;;;;;;;;;;;15.60;99.90;;;;;;5074371;28;19915;-88
2023/06/23 04:27:36;;;;;;;;;;;15.40;99.90;;;;;;5073785;28;19912;-86
2023/06/23 04:30:02;;;;;;;;;;;15.30;99.90;;;;;;5057924;28;19908;-88
2023/06/23 04:32:28;;;;;;;;;;;15.10;99.90;;;;;;5057526;28;19963;-87
2023/06/23 04:34:54;;;;;;;;;;;15.10;99.90;;;;;;5073893;28;19908;-87
2023/06/23 04:37:19;;;;;;;;;;;15.00;99.90;;;;;;5057109;28;19909;-86
2023/06/23 04:39:48;;;;;;;;;;;15.00;99.90;;;;;;5075661;28;19915;-87
2023/06/23 04:42:15;;;;;;;;;;;15.00;99.90;;;;;;5077387;28;19923;-87
2023/06/23 04:44:48;;;;;;;;;;;14.90;99.90;;;;;;5058861;28;19912;-87
2023/06/23 04:47:15;;;;;;;;;;;14.90;99.90;;;;;;5092228;28;20375;-87
2023/06/23 04:49:43;;;;;;;;;;;14.90;99.90;;;;;;5074173;28;19947;-87
2023/06/23 04:52:09;;;;;;;;;;;14.90;99.90;;;;;;5073577;28;19926;-87
2023/06/23 04:54:40;;;;;;;;;;;14.90;99.90;;;;;;5074141;28;19987;-87
2023/06/23 04:57:13;;;;;;;;;;;14.90;99.90;;;;;;5071367;28;19908;-88
2023/06/23 04:59:39;;;;;;;;;;;14.90;99.90;;;;;;5065313;28;20404;-86
2023/06/23 05:02:06;;;;;;;;;;;14.90;99.90;;;;;;5069556;28;19893;-88
2023/06/23 05:04:33;;;;;;;;;;;15.00;99.90;;;;;;5073926;28;19981;-87
2023/06/23 05:07:00;;;;;;;;;;;15.00;99.90;;;;;;5059027;28;20046;-88
2023/06/23 05:09:25;;;;;;;;;;;15.10;99.90;;;;;;5059108;28;19908;-88
2023/06/23 05:11:53;;;;;;;;;;;15.20;99.90;;;;;;5071657;28;19913;-87
2023/06/23 05:14:20;;;;;;;;;;;15.30;99.90;;;;;;5052767;28;19915;-87
2023/06/23 05:16:47;;;;;;;;;;;15.30;99.90;;;;;;5075613;28;19905;-87
2023/06/23 05:19:14;;;;;;;;;;;15.30;99.90;;;;;;5070599;28;19908;-86
2023/06/23 05:21:40;;;;;;;;;;;15.30;99.90;;;;;;5058071;28;19955;-86
2023/06/23 05:24:07;;;;;;;;;;;15.30;99.90;;;;;;5077137;28;20299;-88
2023/06/23 05:26:34;;;;;;;;;;;15.30;99.90;;;;;;5069291;28;19908;-87
2023/06/23 05:29:03;;;;;;;;;;;15.30;99.90;;;;;;5061852;28;19912;-86
2023/06/23 05:31:30;;;;;;;;;;;15.30;99.90;;;;;;5059877;28;19916;-87
2023/06/23 05:33:56;;;;;;;;;;;15.30;99.90;;;;;;5072238;28;20353;-87
2023/06/23 05:36:23;;;;;;;;;;;15.30;99.90;;;;;;5054036;28;19904;-87
2023/06/23 05:38:50;;;;;;;;;;;15.30;99.90;;;;;;5046158;28;19897;-86
2023/06/23 05:41:16;;;;;;;;;;;15.30;99.90;;;;;;5058958;28;19922;-86
2023/06/23 05:43:41;;;;;;;;;;;15.30;99.90;;;;;;5068511;28;20275;-86
2023/06/23 05:46:10;;;;;;;;;;;15.40;99.90;;;;;;5070673;28;20296;-88
2023/06/23 05:48:38;;;;;;;;;;;15.40;99.90;;;;;;5065180;28;19908;-87
2023/06/23 05:51:06;;;;;;;;;;;15.50;99.90;;;;;;5058072;28;19922;-87
2023/06/23 05:53:33;;;;;;;;;;;15.40;99.90;;;;;;5052353;28;19916;-87
2023/06/23 05:56:04;;;;;;;;;;;15.50;99.90;;;;;;5079620;28;19915;-87
2023/06/23 05:58:32;;;;;;;;;;;15.50;99.90;;;;;;5070949;28;20261;-87
2023/06/23 06:00:59;;;;;;;;;;;15.50;99.90;;;;;;5071326;28;19912;-88
2023/06/23 06:03:32;;;;;;;;;;;15.50;99.90;;;;;;5073623;28;19920;-85
2023/06/23 06:05:59;;;;;;;;;;;15.50;99.90;;;;;;5065308;28;19913;-87
2023/06/23 06:08:26;;;;;;;;;;;15.50;99.90;;;;;;5075738;28;19904;-86
2023/06/23 06:10:52;;;;;;;;;;;15.50;99.90;;;;;;5058125;28;19923;-87
2023/06/23 06:13:19;;;;;;;;;;;15.40;99.90;;;;;;5072155;28;20278;-88
2023/06/23 06:15:45;;;;;;;;;;;15.50;99.90;;;;;;5077839;28;20373;-87
2023/06/23 06:18:12;;;;;;;;;;;15.50;99.90;;;;;;5090204;28;20363;-87
2023/06/23 06:20:38;;;;;;;;;;;15.50;99.90;;;;;;5075865;28;19945;-86
2023/06/23 06:26:32;;;;;;;;;;;15.50;99.90;;;;;;5070953;28;20090;-87
2023/06/23 06:28:58;;;;;;;;;;;15.50;99.90;;;;;;5077139;28;20034;-87
2023/06/23 06:31:24;;;;;;;;;;;15.50;99.90;;;;;;5075821;28;19915;-88
2023/06/23 06:33:51;;;;;;;;;;;15.50;99.90;;;;;;5059367;28;20441;-87
2023/06/23 06:36:19;;;;;;;;;;;15.70;99.90;;;;;;5057342;28;19912;-86
2023/06/23 06:38:45;;;;;;;;;;;15.90;99.90;;;;;;5069191;28;20591;-82
2023/06/23 06:41:11;;;;;;;;;;;16.00;99.90;;;;;;5066022;28;20010;-81
2023/06/23 06:43:36;;;;;;;;;;;16.00;99.90;;;;;;5059341;28;19939;-82
2023/06/23 06:46:02;;;;;;;;;;;16.00;99.90;;;;;;5080987;28;19958;-81
2023/06/23 06:48:29;;;;;;;;;;;15.90;99.90;;;;;;5056002;28;19908;-82
2023/06/23 06:50:58;;;;;;;;;;;15.90;99.90;;;;;;5072072;28;19912;-83
2023/06/23 06:53:24;;;;;;;;;;;16.00;99.90;;;;;;5071820;28;19908;-82
2023/06/23 06:55:51;;;;;;;;;;;16.10;99.90;;;;;;5067846;28;19914;-82
2023/06/23 06:58:16;;;;;;;;;;;16.10;99.90;;;;;;5072158;28;19944;-82
2023/06/23 07:00:43;;;;;;;;;;;16.00;99.90;;;;;;5069906;28;19920;-82
2023/06/23 07:03:12;;;;;;;;;;;16.10;99.90;;;;;;5069746;28;19939;-83
2023/06/23 07:05:38;;;;;;;;;;;16.20;99.90;;;;;;5067065;28;19908;-82
2023/06/23 07:08:05;;;;;;;;;;;16.50;99.90;;;;;;5055656;28;20000;-82
2023/06/23 07:10:34;;;;;;;;;;;16.70;99.90;;;;;;5073325;28;19912;-82
2023/06/23 07:13:00;;;;;;;;;;;16.90;99.90;;;;;;5071758;28;20419;-82
2023/06/23 07:15:26;;;;;;;;;;;16.90;99.90;;;;;;5071553;28;19915;-82
2023/06/23 07:17:51;;;;;;;;;;;17.20;99.90;;;;;;5070890;28;19909;-83
2023/06/23 07:20:17;;;;;;;;;;;17.30;99.90;;;;;;5071281;28;19912;-82
2023/06/23 07:22:43;;;;;;;;;;;17.40;99.90;;;;;;5054363;28;19958;-83
2023/06/23 07:25:09;;;;;;;;;;;17.70;99.90;;;;;;5071293;28;19909;-83
2023/06/23 07:27:48;;;;;;;;;;;17.80;99.90;;;;;;5054827;28;19916;-83
2023/06/23 07:30:13;;;;;;;;;;;18.30;99.90;;;;;;5071561;28;20322;-82
2023/06/23 07:32:39;;;;;;;;;;;18.70;99.90;;;;;;5055139;28;19915;-82
2023/06/23 07:35:06;;;;;;;;;;;19.00;99.90;;;;;;5074193;28;19999;-82
2023/06/23 07:37:31;;;;;;;;;;;18.80;99.90;;;;;;5058725;28;19912;-82
2023/06/23 07:39:57;;;;;;;;;;;18.60;99.90;;;;;;5054927;28;19916;-83
2023/06/23 07:42:23;;;;;;;;;;;18.40;99.90;;;;;;5071996;28;19991;-82
2023/06/23 07:44:49;;;;;;;;;;;18.20;99.90;;;;;;5071513;28;19908;-81
2023/06/23 07:47:15;;;;;;;;;;;18.40;99.90;;;;;;5054805;28;20397;-82
2023/06/23 07:49:40;;;;;;;;;;;18.70;99.90;;;;;;5071798;28;20244;-83
2023/06/23 07:52:06;;;;;;;;;;;18.90;99.90;;;;;;5054471;28;19912;-83
2023/06/23 07:54:32;;;;;;;;;;;19.10;99.90;;;;;;5071253;28;19908;-82
2023/06/23 07:56:58;;;;;;;;;;;18.90;99.90;;;;;;5054713;28;19999;-83
2023/06/23 07:59:26;;;;;;;;;;;18.70;99.90;;;;;;5054478;28;19915;-82
2023/06/23 08:01:52;;;;;;;;;;;18.60;99.90;;;;;;5054675;28;20105;-84
2023/06/23 08:04:18;;;;;;;;;;;18.20;99.90;;;;;;5070232;28;20002;-83
2023/06/23 08:06:44;;;;;;;;;;;17.90;99.90;;;;;;5054452;28;19909;-84
2023/06/23 08:09:10;;;;;;;;;;;17.80;99.90;;;;;;5071108;28;19919;-83
2023/06/23 08:11:35;;;;;;;;;;;17.70;99.90;;;;;;5070997;28;19916;-81
2023/06/23 08:14:01;;;;;;;;;;;18.30;99.90;;;;;;5071270;28;19909;-82
2023/06/23 08:16:27;;;;;;;;;;;19.20;99.90;;;;;;5071274;28;19913;-83
2023/06/23 08:18:52;;;;;;;;;;;20.00;99.90;;;;;;5070769;28;20295;-82
2023/06/23 08:21:19;;;;;;;;;;;20.90;99.90;;;;;;5053401;28;19962;-83
2023/06/23 08:23:45;;;;;;;;;;;21.60;99.90;;;;;;5070759;28;19912;-84
2023/06/23 08:26:10;;;;;;;;;;;21.80;99.90;;;;;;5053878;28;19919;-83
2023/06/23 08:28:36;;;;;;;;;;;22.40;99.90;;;;;;5053618;28;19966;-82
2023/06/23 08:31:02;;;;;;;;;;;21.80;99.90;;;;;;5069911;28;19908;-84
2023/06/23 08:33:27;;;;;;;;;;;21.60;99.90;;;;;;5054062;28;20368;-83
2023/06/23 08:35:53;;;;;;;;;;;21.10;99.90;;;;;;5054127;28;19908;-83
2023/06/23 08:38:18;;;;;;;;;;;21.00;99.90;;;;;;5074520;28;20464;-83
2023/06/23 08:40:46;;;;;;;;;;;20.80;99.90;;;;;;5074814;28;20287;-83
2023/06/23 08:43:12;;;;;;;;;;;20.30;99.90;;;;;;5075072;28;19930;-83
2023/06/23 08:45:40;;;;;;;;;;;20.40;99.90;;;;;;5057806;28;19912;-83
2023/06/23 08:48:07;;;;;;;;;;;20.50;99.90;;;;;;5074928;28;20020;-84
2023/06/23 08:50:34;;;;;;;;;;;20.40;99.90;;;;;;5074318;28;20003;-83
2023/06/23 08:52:59;;;;;;;;;;;20.60;99.90;;;;;;5058028;28;19908;-84
2023/06/23 08:55:26;;;;;;;;;;;20.90;99.90;;;;;;5076142;28;20256;-84
2023/06/23 08:57:51;;;;;;;;;;;21.20;99.90;;;;;;5058339;28;19993;-84
2023/06/23 09:00:17;;;;;;;;;;;20.70;99.90;;;;;;5058033;28;19943;-84
2023/06/23 09:03:17;;;;;;;;;;;19.70;99.90;;;;;;5075329;28;19947;-83
2023/06/23 09:05:42;;;;;;;;;;;20.30;99.90;;;;;;5070346;28;20372;-84
2023/06/23 09:08:09;;;;;;;;;;;21.80;99.90;;;;;;5074818;28;20042;-83
2023/06/23 09:10:34;;;;;;;;;;;22.00;99.90;;;;;;5058145;28;19917;-83
2023/06/23 09:13:00;;;;;;;;;;;21.60;99.90;;;;;;5074706;28;20639;-83
2023/06/23 09:15:26;;;;;;;;;;;20.70;99.90;;;;;;5070694;28;20429;-84
2023/06/23 09:17:52;;;;;;;;;;;20.10;99.90;;;;;;5061067;28;19962;-83
2023/06/23 09:20:17;;;;;;;;;;;20.20;99.90;;;;;;5074820;28;19935;-83
2023/06/23 09:22:44;;;;;;;;;;;20.90;99.90;;;;;;5074656;28;20378;-84
2023/06/23 09:25:10;;;;;;;;;;;21.50;99.90;;;;;;5074397;28;20600;-84
2023/06/23 09:27:39;;;;;;;;;;;21.90;99.90;;;;;;5057453;28;19913;-84
2023/06/23 09:30:07;;;;;;;;;;;22.50;99.90;;;;;;5074656;28;20352;-84
2023/06/23 09:32:32;;;;;;;;;;;22.60;99.90;;;;;;5057095;28;19917;-82
2023/06/23 09:34:58;;;;;;;;;;;22.80;99.90;;;;;;5074039;28;19990;-82
2023/06/23 09:37:23;;;;;;;;;;;22.10;99.90;;;;;;5074982;28;19959;-82
2023/06/23 09:39:54;;;;;;;;;;;21.50;99.90;;;;;;5075373;28;19913;-82
2023/06/23 09:42:22;;;;;;;;;;;21.30;99.90;;;;;;5073631;28;19952;-82
2023/06/23 09:44:48;;;;;;;;;;;21.20;99.90;;;;;;5077572;28;20054;-82
2023/06/23 09:47:15;;;;;;;;;;;21.50;99.90;;;;;;5057431;28;19909;-82
2023/06/23 09:49:41;;;;;;;;;;;22.30;99.90;;;;;;5073420;28;19955;-82
2023/06/23 09:52:08;;;;;;;;;;;22.70;99.90;;;;;;5057295;28;19999;-84
2023/06/23 09:54:36;;;;;;;;;;;22.30;99.90;;;;;;5057175;28;19987;-83
2023/06/23 09:57:02;;;;;;;;;;;22.50;99.90;;;;;;5073564;28;20523;-83
2023/06/23 09:59:30;;;;;;;;;;;23.20;99.90;;;;;;5073311;28;19912;-83
2023/06/23 10:01:55;;;;;;;;;;;22.80;99.90;;;;;;5056933;28;19919;-83
2023/06/23 10:04:27;;;;;;;;;;;22.00;99.90;;;;;;5074013;28;19908;-82
2023/06/23 10:06:53;;;;;;;;;;;22.30;99.90;;;;;;5090819;28;19912;-83
2023/06/23 10:09:22;;;;;;;;;;;22.70;99.90;;;;;;5073413;28;19930;-83
2023/06/23 10:11:47;;;;;;;;;;;22.30;99.90;;;;;;5068376;28;19955;-83
2023/06/23 10:14:15;;;;;;;;;;;21.60;99.90;;;;;;5057244;28;19916;-82
2023/06/23 10:16:43;;;;;;;;;;;21.90;99.90;;;;;;5073862;28;20010;-82
2023/06/23 10:19:09;;;;;;;;;;;22.00;99.90;;;;;;5073732;28;19942;-84
2023/06/23 10:21:36;;;;;;;;;;;21.90;99.90;;;;;;5056959;28;19955;-84
2023/06/23 10:24:07;;;;;;;;;;;22.40;99.90;;;;;;5073404;28;19908;-84
2023/06/23 10:26:35;;;;;;;;;;;22.70;99.90;;;;;;5071296;28;19978;-83
2023/06/23 10:29:03;;;;;;;;;;;23.00;99.90;;;;;;5077580;28;19912;-83
2023/06/23 10:31:29;;;;;;;;;;;23.20;99.90;;;;;;5073114;28;20267;-83
2023/06/23 10:33:57;;;;;;;;;;;22.30;99.90;;;;;;5056400;28;19916;-84
2023/06/23 10:36:23;;;;;;;;;;;21.70;99.90;;;;;;5073008;28;19908;-83
2023/06/23 10:38:50;;;;;;;;;;;21.10;99.90;;;;;;5073761;28;19917;-83
2023/06/23 10:41:17;;;;;;;;;;;20.80;99.90;;;;;;5073154;28;19919;-83
2023/06/23 10:43:46;;;;;;;;;;;21.50;99.90;;;;;;5055966;28;19908;-83
2023/06/23 10:46:15;;;;;;;;;;;22.20;99.90;;;;;;5073503;28;19909;-83
2023/06/23 10:48:42;;;;;;;;;;;22.00;99.90;;;;;;5073033;28;19912;-84
2023/06/23 10:51:08;;;;;;;;;;;21.30;99.90;;;;;;5073295;28;19912;-83
2023/06/23 10:53:42;;;;;;;;;;;20.90;99.90;;;;;;5073340;28;19912;-84
2023/06/23 10:56:08;;;;;;;;;;;20.80;99.90;;;;;;5056321;28;20329;-83
2023/06/23 10:58:46;;;;;;;;;;;20.80;99.90;;;;;;5072587;28;19908;-83
2023/06/23 11:01:11;;;;;;;;;;;20.80;99.90;;;;;;5055214;28;19950;-83
2023/06/23 11:03:38;;;;;;;;;;;20.60;99.90;;;;;;5081637;28;19920;-83
2023/06/23 11:06:04;;;;;;;;;;;20.40;99.90;;;;;;5073525;28;19999;-83
2023/06/23 11:08:35;;;;;;;;;;;20.40;99.90;;;;;;5055935;28;19912;-83
2023/06/23 11:11:03;;;;;;;;;;;20.60;99.90;;;;;;5056025;28;19908;-83
2023/06/23 11:13:41;;;;;;;;;;;21.20;99.90;;;;;;5074375;28;19971;-83
2023/06/23 11:16:14;;;;;;;;;;;21.00;99.90;;;;;;5073194;28;19969;-83
2023/06/23 11:18:51;;;;;;;;;;;20.70;99.90;;;;;;5072347;28;19908;-83
2023/06/23 11:21:28;;;;;;;;;;;20.50;99.90;;;;;;5070984;28;19936;-82
2023/06/23 11:24:06;;;;;;;;;;;20.60;99.90;;;;;;5090352;28;19908;-83
2023/06/23 11:26:32;;;;;;;;;;;20.80;99.90;;;;;;5089232;28;19912;-83
2023/06/23 11:28:58;;;;;;;;;;;21.30;99.90;;;;;;5071812;28;20339;-83
2023/06/23 11:31:28;;;;;;;;;;;21.30;99.90;;;;;;5069831;28;19912;-84
2023/06/23 11:33:54;;;;;;;;;;;21.50;99.90;;;;;;5053945;28;20012;-84
2023/06/23 11:36:20;;;;;;;;;;;22.20;99.90;;;;;;5088646;28;19995;-83
2023/06/23 11:38:45;;;;;;;;;;;22.10;99.90;;;;;;5057548;28;19915;-82
2023/06/23 11:41:12;;;;;;;;;;;21.60;99.90;;;;;;5074472;28;19912;-83
2023/06/23 11:43:38;;;;;;;;;;;21.50;99.90;;;;;;5055005;28;19919;-82
2023/06/23 11:46:06;;;;;;;;;;;21.10;99.90;;;;;;5071483;28;19912;-82
2023/06/23 11:48:32;;;;;;;;;;;20.60;99.90;;;;;;5055080;28;19908;-83
2023/06/23 11:50:58;;;;;;;;;;;20.50;99.90;;;;;;5071687;28;19904;-83
2023/06/23 11:53:25;;;;;;;;;;;20.30;99.90;;;;;;5054770;28;19908;-83
2023/06/23 11:55:51;;;;;;;;;;;19.90;99.90;;;;;;5055350;28;20509;-83
2023/06/23 11:58:17;;;;;;;;;;;19.70;99.90;;;;;;5073166;28;19912;-83
2023/06/23 12:00:43;;;;;;;;;;;19.80;99.90;;;;;;5071690;28;19962;-82
2023/06/23 12:03:12;;;;;;;;;;;19.90;99.90;;;;;;5054463;28;19912;-83
2023/06/23 12:05:40;;;;;;;;;;;20.00;99.90;;;;;;5085995;28;19912;-82
2023/06/23 12:08:06;;;;;;;;;;;20.00;99.90;;;;;;5074363;28;19952;-82
2023/06/23 12:10:39;;;;;;;;;;;20.30;99.90;;;;;;5071489;28;19946;-82
2023/06/23 12:13:11;;;;;;;;;;;20.50;99.90;;;;;;5071036;28;19908;-82
2023/06/23 12:15:37;;;;;;;;;;;21.10;99.90;;;;;;5073893;28;20520;-82
2023/06/23 12:18:06;;;;;;;;;;;21.90;99.90;;;;;;5073034;28;20333;-82
2023/06/23 12:24:09;;;;;;;;;;;23.60;99.90;;;;;;5069631;28;19927;-83
2023/06/23 12:26:38;;;;;;;;;;;22.80;99.90;;;;;;5071703;28;19912;-83
2023/06/23 12:29:07;;;;;;;;;;;21.90;99.90;;;;;;5071609;28;19912;-83
2023/06/23 12:31:33;;;;;;;;;;;21.90;99.90;;;;;;5071423;28;20016;-83
2023/06/23 12:33:59;;;;;;;;;;;21.90;99.90;;;;;;5071439;28;19977;-82
2023/06/23 12:36:25;;;;;;;;;;;22.20;99.90;;;;;;5071406;28;20526;-84
2023/06/23 12:38:53;;;;;;;;;;;22.50;99.90;;;;;;5071211;28;19916;-83
2023/06/23 12:41:29;;;;;;;;;;;22.70;99.90;;;;;;5071264;28;19913;-83
2023/06/23 12:44:03;;;;;;;;;;;22.70;99.90;;;;;;5054608;28;19908;-84
2023/06/23 12:46:29;;;;;;;;;;;22.90;99.90;;;;;;5071627;28;19920;-84
2023/06/23 12:48:55;;;;;;;;;;;23.20;99.90;;;;;;5071075;28;20003;-84
2023/06/23 12:51:31;;;;;;;;;;;23.80;99.90;;;;;;5071323;28;19964;-84
2023/06/23 12:53:57;;;;;;;;;;;24.20;99.90;;;;;;5065797;28;19908;-83
2023/06/23 12:56:22;;;;;;;;;;;24.80;99.90;;;;;;5071019;28;19942;-83
2023/06/23 12:58:48;;;;;;;;;;;23.70;99.90;;;;;;5071609;28;19982;-83
2023/06/23 13:01:13;;;;;;;;;;;22.50;99.90;;;;;;5071644;28;19963;-82
2023/06/23 13:03:39;;;;;;;;;;;22.20;99.90;;;;;;5055007;28;19915;-83
2023/06/23 13:06:05;;;;;;;;;;;21.80;99.90;;;;;;5071528;28;19909;-84
2023/06/23 13:08:31;;;;;;;;;;;21.70;99.90;;;;;;5071364;28;19955;-83
2023/06/23 13:10:56;;;;;;;;;;;21.70;99.90;;;;;;5054264;28;19977;-83
2023/06/23 13:13:22;;;;;;;;;;;21.80;99.90;;;;;;5071438;28;20672;-83
2023/06/23 13:15:47;;;;;;;;;;;21.80;99.90;;;;;;5071206;28;19909;-83
2023/06/23 13:18:13;;;;;;;;;;;21.90;99.90;;;;;;5071552;28;19935;-83
2023/06/23 13:20:39;;;;;;;;;;;21.50;99.90;;;;;;5071510;28;20360;-83
2023/06/23 13:23:05;;;;;;;;;;;21.30;99.90;;;;;;5072525;28;19923;-83
2023/06/23 13:25:31;;;;;;;;;;;21.20;99.90;;;;;;5073687;28;19962;-83
2023/06/23 13:27:56;;;;;;;;;;;21.60;99.90;;;;;;5068806;28;19912;-84
2023/06/23 13:30:22;;;;;;;;;;;21.90;99.90;;;;;;5074349;28;19908;-83
2023/06/23 13:32:48;;;;;;;;;;;22.30;99.90;;;;;;5074573;28;19908;-83
2023/06/23 13:35:13;;;;;;;;;;;22.60;99.90;;;;;;5074068;28;19908;-83
2023/06/23 13:37:39;;;;;;;;;;;23.00;99.90;;;;;;5074379;28;20744;-82
2023/06/23 13:40:06;;;;;;;;;;;23.90;99.90;;;;;;5059490;28;19912;-83
2023/06/23 13:42:31;;;;;;;;;;;24.40;99.90;;;;;;5076909;28;19919;-83
2023/06/23 13:44:57;;;;;;;;;;;25.00;99.90;;;;;;5074386;28;19912;-83
2023/06/23 13:47:22;;;;;;;;;;;25.60;99.90;;;;;;5074392;28;20011;-83
2023/06/23 13:49:48;;;;;;;;;;;25.10;99.90;;;;;;5074500;28;20025;-84
2023/06/23 13:52:14;;;;;;;;;;;24.70;99.90;;;;;;5073957;28;19908;-83
2023/06/23 13:54:39;;;;;;;;;;;25.30;99.90;;;;;;5074229;28;20629;-83
2023/06/23 13:57:05;;;;;;;;;;;25.20;99.90;;;;;;5074039;28;19908;-83
2023/06/23 13:59:31;;;;;;;;;;;24.80;99.90;;;;;;5074781;28;20615;-83
2023/06/23 14:01:56;;;;;;;;;;;24.70;99.90;;;;;;5057562;28;20310;-83
2023/06/23 14:04:22;;;;;;;;;;;24.80;99.90;;;;;;5057959;28;19908;-83
2023/06/23 14:06:47;;;;;;;;;;;24.90;99.90;;;;;;5057761;28;19923;-83
2023/06/23 14:09:14;;;;;;;;;;;25.40;99.90;;;;;;5073837;28;19935;-82
2023/06/23 14:11:40;;;;;;;;;;;25.10;99.70;;;;;;5057407;28;19923;-83
2023/06/23 14:14:06;;;;;;;;;;;25.20;99.90;;;;;;5057030;28;19913;-83
2023/06/23 14:16:34;;;;;;;;;;;25.60;99.90;;;;;;5073924;28;19913;-83
2023/06/23 14:19:01;;;;;;;;;;;25.50;98.90;;;;;;5058682;28;20286;-84
2023/06/23 14:21:27;;;;;;;;;;;25.00;99.80;;;;;;5073752;28;19951;-83
2023/06/23 14:23:52;;;;;;;;;;;24.10;99.90;;;;;;5069514;28;19947;-83